Time;durP1;ratioP1;P1;durP2;ratioP2;P2;SDS_P1;SDS_P2;PMS_P1;PMS_P2;Temp;Humidity;BMP_temperature;BMP_pressure;BME280_temperature;BME280_humidity;BME280_pressure;Samples;Min_cycle;Max_cycle;Signal;HPM_P1;HPM_P2
2021/11/02 19:58:11;;;;;;;4.43;3.13;;;;;;;;;;5832194;22;20431;-48
2021/11/02 20:00:40;;;;;;;4.78;3.03;;;;;;;;;;5067913;28;20609;-46
2021/11/02 20:03:06;;;;;;;5.38;3.20;;;;;;;;;;5054384;28;20388;-47
2021/11/02 20:05:32;;;;;;;6.60;3.17;;;;;;;;;;5052335;28;20379;-47
2021/11/02 20:08:01;;;;;;;5.03;3.20;;;;;;;;;;5071295;28;20386;-50
2021/11/02 20:10:27;;;;;;;4.23;3.10;;;;;;;;;;5070823;28;20472;-48
2021/11/02 20:13:07;;;;;;;5.03;3.10;;;;;;;;;;5048464;28;20397;-47
2021/11/02 20:15:38;;;;;;;5.88;3.38;;;;;;;;;;5063653;28;20392;-46
2021/11/02 20:18:06;;;;;;;6.05;2.95;;;;;;;;;;5070507;28;20412;-47
2021/11/02 20:20:32;;;;;;;4.90;2.90;;;;;;;;;;5070568;28;20448;-46
2021/11/02 20:22:58;;;;;;;5.40;3.20;;;;;;;;;;5070137;28;20378;-46
2021/11/02 20:25:25;;;;;;;5.65;2.95;;;;;;;;;;5051747;28;20383;-50
2021/11/02 20:27:56;;;;;;;7.47;3.13;;;;;;;;;;5051331;28;20441;-47
2021/11/02 20:30:22;;;;;;;4.68;2.80;;;;;;;;;;5070051;28;20898;-47
2021/11/02 20:32:49;;;;;;;6.33;2.93;;;;;;;;;;5050685;28;20392;-48
2021/11/02 20:35:16;;;;;;;6.25;3.40;;;;;;;;;;5070324;28;20418;-52
2021/11/02 20:37:42;;;;;;;5.18;2.65;;;;;;;;;;5071378;28;20480;-49
2021/11/02 20:40:09;;;;;;;13.95;3.00;;;;;;;;;;5070177;28;20569;-49
2021/11/02 20:42:38;;;;;;;5.73;2.87;;;;;;;;;;5070592;28;20364;-47
2021/11/02 20:45:08;;;;;;;5.22;2.83;;;;;;;;;;5070207;28;20441;-52
2021/11/02 20:47:38;;;;;;;5.85;2.75;;;;;;;;;;5070222;28;20395;-48
2021/11/02 20:50:05;;;;;;;7.15;3.00;;;;;;;;;;5052272;28;20391;-50
2021/11/02 20:52:32;;;;;;;5.03;2.90;;;;;;;;;;5070851;28;20364;-51
2021/11/02 20:54:58;;;;;;;5.72;2.85;;;;;;;;;;5052577;28;20371;-50
2021/11/02 20:57:25;;;;;;;5.85;2.60;;;;;;;;;;5070659;28;20518;-49
2021/11/02 20:59:52;;;;;;;6.55;2.60;;;;;;;;;;5049436;28;20424;-46
2021/11/02 21:02:25;;;;;;;4.05;2.60;;;;;;;;;;5058571;28;20435;-47
2021/11/02 21:04:55;;;;;;;6.05;2.90;;;;;;;;;;5057403;28;20423;-51
2021/11/02 21:07:26;;;;;;;5.43;2.85;;;;;;;;;;5058898;28;20380;-47
2021/11/02 21:10:00;;;;;;;6.30;2.80;;;;;;;;;;5061399;28;20391;-48
2021/11/02 21:12:27;;;;;;;4.43;2.78;;;;;;;;;;5058648;28;20374;-47
2021/11/02 21:14:54;;;;;;;5.75;2.90;;;;;;;;;;5041419;28;20380;-45
2021/11/02 21:17:20;;;;;;;5.47;2.55;;;;;;;;;;5061790;28;20436;-45
2021/11/02 21:19:48;;;;;;;4.30;2.37;;;;;;;;;;5059297;28;20398;-49
2021/11/02 21:22:15;;;;;;;4.97;2.47;;;;;;;;;;5062135;28;20392;-46
2021/11/02 21:24:42;;;;;;;5.07;2.27;;;;;;;;;;5058755;28;20423;-47
2021/11/02 21:27:09;;;;;;;5.00;2.67;;;;;;;;;;5060896;28;20383;-43
2021/11/02 21:29:37;;;;;;;5.40;2.60;;;;;;;;;;5060737;28;20677;-44
2021/11/02 21:32:03;;;;;;;4.20;2.58;;;;;;;;;;5060662;28;20397;-43
2021/11/02 21:34:30;;;;;;;4.28;2.90;;;;;;;;;;5057753;28;20475;-46
2021/11/02 21:36:56;;;;;;;4.68;2.80;;;;;;;;;;5055277;28;20413;-52
2021/11/02 21:39:23;;;;;;;4.85;2.53;;;;;;;;;;5066024;28;20449;-45
2021/11/02 21:41:49;;;;;;;4.32;2.67;;;;;;;;;;5064636;28;20465;-44
2021/11/02 21:44:20;;;;;;;4.15;2.45;;;;;;;;;;5043609;28;20380;-47
2021/11/02 21:46:52;;;;;;;4.40;2.20;;;;;;;;;;5062478;28;20395;-47
2021/11/02 21:49:19;;;;;;;4.40;2.45;;;;;;;;;;5063974;28;20425;-46
2021/11/02 21:51:47;;;;;;;5.45;2.30;;;;;;;;;;5060876;28;20395;-44
2021/11/02 21:54:13;;;;;;;3.92;2.25;;;;;;;;;;5064279;28;20387;-47
2021/11/02 21:56:51;;;;;;;4.03;2.20;;;;;;;;;;5062024;28;20576;-53
2021/11/02 21:59:20;;;;;;;4.95;2.15;;;;;;;;;;5066227;28;20555;-47
